Green Spring, West Virginia
Current Conditions -  °F | °C
As of 6:08 AM on Tuesday 21 Oct 2014 (Local Time) from KCBE Reporting Station
Overcast Overcast  
Wind Chill: 46°   Ceiling: 3300
Heat Index: 46°   Visibility: 5mi
Dew Point: 46°   Wind: 0mph
Humidity: 100%   Direction: NA
Pressure: 29.9"   Gusts: NA
Location:  39.53°N, 78.62°W
Report Text: KCBE 211008Z AUTO 00000KT 5SM OVC033 08/08 A2990 RMK AO1
Loading
Personal Weather Stations






























Interactive Weather Map
Tropical Storm Tracking
New forecast layout! Learn more

10-Day Weather Forecast

Advertisements
Track Severe Weather on mobile